sensor_id;sensor_type;location;lat;lon;timestamp;temperature;humidity
59973;DHT22;55298;-36.624;-64.282;2022-09-09T00:02:24;10.30;55.80
59973;DHT22;55298;-36.624;-64.282;2022-09-09T00:05:04;10.30;56.30
59973;DHT22;55298;-36.624;-64.282;2022-09-09T00:07:47;10.20;56.90
59973;DHT22;55298;-36.624;-64.282;2022-09-09T00:10:29;10.20;57.30
59973;DHT22;55298;-36.624;-64.282;2022-09-09T00:16:04;10.20;58.20
59973;DHT22;55298;-36.624;-64.282;2022-09-09T00:19:12;10.10;58.60
59973;DHT22;55298;-36.624;-64.282;2022-09-09T00:21:37;10.00;58.90
59973;DHT22;55298;-36.624;-64.282;2022-09-09T00:24:26;9.90;59.20
59973;DHT22;55298;-36.624;-64.282;2022-09-09T00:27:07;9.90;59.60
59973;DHT22;55298;-36.624;-64.282;2022-09-09T00:29:47;9.80;60.00
59973;DHT22;55298;-36.624;-64.282;2022-09-09T00:32:21;9.80;60.30
59973;DHT22;55298;-36.624;-64.282;2022-09-09T00:34:57;9.70;60.60
59973;DHT22;55298;-36.624;-64.282;2022-09-09T00:37:27;9.70;61.20
59973;DHT22;55298;-36.624;-64.282;2022-09-09T00:40:19;9.60;61.60
59973;DHT22;55298;-36.624;-64.282;2022-09-09T00:46:05;9.50;62.50
59973;DHT22;55298;-36.624;-64.282;2022-09-09T00:49:09;9.40;63.00
59973;DHT22;55298;-36.624;-64.282;2022-09-09T00:57:42;9.20;64.90
59973;DHT22;55298;-36.624;-64.282;2022-09-09T01:00:22;9.10;65.00
59973;DHT22;55298;-36.624;-64.282;2022-09-09T01:03:06;9.10;65.40
59973;DHT22;55298;-36.624;-64.282;2022-09-09T01:11:22;9.00;66.30
59973;DHT22;55298;-36.624;-64.282;2022-09-09T01:14:09;9.00;66.50
59973;DHT22;55298;-36.624;-64.282;2022-09-09T01:16:39;9.10;67.00
59973;DHT22;55298;-36.624;-64.282;2022-09-09T01:19:13;9.00;66.60
59973;DHT22;55298;-36.624;-64.282;2022-09-09T01:21:56;9.00;66.50
59973;DHT22;55298;-36.624;-64.282;2022-09-09T01:24:38;8.90;66.70
59973;DHT22;55298;-36.624;-64.282;2022-09-09T01:27:10;8.90;66.90
59973;DHT22;55298;-36.624;-64.282;2022-09-09T01:29:38;8.80;67.20
59973;DHT22;55298;-36.624;-64.282;2022-09-09T01:34:57;8.80;67.90
59973;DHT22;55298;-36.624;-64.282;2022-09-09T01:37:25;8.90;67.70
59973;DHT22;55298;-36.624;-64.282;2022-09-09T01:39:53;8.90;67.50
59973;DHT22;55298;-36.624;-64.282;2022-09-09T01:42:24;8.90;67.80
59973;DHT22;55298;-36.624;-64.282;2022-09-09T01:44:51;9.00;67.80
59973;DHT22;55298;-36.624;-64.282;2022-09-09T01:47:21;9.00;67.50
59973;DHT22;55298;-36.624;-64.282;2022-09-09T01:49:49;9.00;68.00
59973;DHT22;55298;-36.624;-64.282;2022-09-09T01:52:17;9.00;67.80
59973;DHT22;55298;-36.624;-64.282;2022-09-09T01:54:45;9.00;68.10
59973;DHT22;55298;-36.624;-64.282;2022-09-09T01:57:26;8.90;69.00
59973;DHT22;55298;-36.624;-64.282;2022-09-09T02:00:07;9.00;68.90
59973;DHT22;55298;-36.624;-64.282;2022-09-09T02:05:36;8.90;69.10
59973;DHT22;55298;-36.624;-64.282;2022-09-09T02:08:08;8.90;69.30
59973;DHT22;55298;-36.624;-64.282;2022-09-09T02:10:50;8.80;69.40
59973;DHT22;55298;-36.624;-64.282;2022-09-09T02:13:21;8.90;69.20
59973;DHT22;55298;-36.624;-64.282;2022-09-09T02:16:08;8.90;73.30
59973;DHT22;55298;-36.624;-64.282;2022-09-09T02:18:51;8.70;77.20
59973;DHT22;55298;-36.624;-64.282;2022-09-09T02:21:24;8.70;79.90
59973;DHT22;55298;-36.624;-64.282;2022-09-09T02:23:56;8.50;81.20
59973;DHT22;55298;-36.624;-64.282;2022-09-09T02:26:27;8.50;81.60
59973;DHT22;55298;-36.624;-64.282;2022-09-09T02:28:58;8.50;81.70
59973;DHT22;55298;-36.624;-64.282;2022-09-09T02:31:28;8.40;82.70
59973;DHT22;55298;-36.624;-64.282;2022-09-09T02:33:58;8.40;83.10
59973;DHT22;55298;-36.624;-64.282;2022-09-09T02:36:29;8.30;82.10
59973;DHT22;55298;-36.624;-64.282;2022-09-09T02:39:00;8.30;82.70
59973;DHT22;55298;-36.624;-64.282;2022-09-09T02:41:33;8.40;82.10
59973;DHT22;55298;-36.624;-64.282;2022-09-09T02:44:05;8.30;82.40
59973;DHT22;55298;-36.624;-64.282;2022-09-09T02:55:45;8.00;82.10
59973;DHT22;55298;-36.624;-64.282;2022-09-09T02:58:17;8.10;82.20
59973;DHT22;55298;-36.624;-64.282;2022-09-09T03:00:50;8.00;80.90
59973;DHT22;55298;-36.624;-64.282;2022-09-09T03:03:18;8.00;79.40
59973;DHT22;55298;-36.624;-64.282;2022-09-09T03:05:48;7.90;77.40
59973;DHT22;55298;-36.624;-64.282;2022-09-09T03:08:16;7.90;76.30
59973;DHT22;55298;-36.624;-64.282;2022-09-09T03:10:45;7.90;76.00
59973;DHT22;55298;-36.624;-64.282;2022-09-09T03:13:12;8.00;75.50
59973;DHT22;55298;-36.624;-64.282;2022-09-09T03:15:41;7.90;75.30
59973;DHT22;55298;-36.624;-64.282;2022-09-09T03:18:09;7.90;73.60
59973;DHT22;55298;-36.624;-64.282;2022-09-09T03:20:37;7.80;73.90
59973;DHT22;55298;-36.624;-64.282;2022-09-09T03:23:05;7.80;73.00
59973;DHT22;55298;-36.624;-64.282;2022-09-09T03:25:33;7.70;73.70
59973;DHT22;55298;-36.624;-64.282;2022-09-09T03:28:02;7.70;73.30
59973;DHT22;55298;-36.624;-64.282;2022-09-09T03:30:30;7.70;72.80
59973;DHT22;55298;-36.624;-64.282;2022-09-09T03:32:59;7.70;72.40
59973;DHT22;55298;-36.624;-64.282;2022-09-09T03:35:27;7.80;72.10
59973;DHT22;55298;-36.624;-64.282;2022-09-09T03:37:54;7.80;71.50
59973;DHT22;55298;-36.624;-64.282;2022-09-09T03:40:23;7.80;71.60
59973;DHT22;55298;-36.624;-64.282;2022-09-09T03:42:51;7.70;71.50
59973;DHT22;55298;-36.624;-64.282;2022-09-09T03:45:20;7.70;72.10
59973;DHT22;55298;-36.624;-64.282;2022-09-09T03:47:49;7.60;71.80
59973;DHT22;55298;-36.624;-64.282;2022-09-09T03:50:17;7.70;71.70
59973;DHT22;55298;-36.624;-64.282;2022-09-09T03:52:45;7.70;71.60
59973;DHT22;55298;-36.624;-64.282;2022-09-09T03:55:15;7.60;72.10
59973;DHT22;55298;-36.624;-64.282;2022-09-09T03:57:43;7.60;72.70
59973;DHT22;55298;-36.624;-64.282;2022-09-09T04:00:11;7.70;73.00
59973;DHT22;55298;-36.624;-64.282;2022-09-09T04:02:39;7.60;72.70
59973;DHT22;55298;-36.624;-64.282;2022-09-09T04:05:07;7.50;72.20
59973;DHT22;55298;-36.624;-64.282;2022-09-09T04:07:36;7.50;72.30
59973;DHT22;55298;-36.624;-64.282;2022-09-09T04:10:03;7.30;73.90
59973;DHT22;55298;-36.624;-64.282;2022-09-09T04:12:32;7.20;74.10
59973;DHT22;55298;-36.624;-64.282;2022-09-09T04:15:01;7.20;74.40
59973;DHT22;55298;-36.624;-64.282;2022-09-09T04:17:28;7.10;75.30
59973;DHT22;55298;-36.624;-64.282;2022-09-09T04:19:57;7.10;76.60
59973;DHT22;55298;-36.624;-64.282;2022-09-09T04:22:27;7.00;78.50
59973;DHT22;55298;-36.624;-64.282;2022-09-09T04:24:55;6.70;80.70
59973;DHT22;55298;-36.624;-64.282;2022-09-09T04:27:23;6.50;82.00
59973;DHT22;55298;-36.624;-64.282;2022-09-09T04:29:53;6.50;82.70
59973;DHT22;55298;-36.624;-64.282;2022-09-09T04:32:21;6.40;82.40
59973;DHT22;55298;-36.624;-64.282;2022-09-09T04:34:50;6.30;82.60
59973;DHT22;55298;-36.624;-64.282;2022-09-09T04:37:18;6.30;82.80
59973;DHT22;55298;-36.624;-64.282;2022-09-09T04:39:45;6.30;81.90
59973;DHT22;55298;-36.624;-64.282;2022-09-09T04:42:14;6.20;81.80
59973;DHT22;55298;-36.624;-64.282;2022-09-09T04:44:43;6.20;81.40
59973;DHT22;55298;-36.624;-64.282;2022-09-09T04:47:11;6.20;81.30
59973;DHT22;55298;-36.624;-64.282;2022-09-09T04:49:38;6.10;81.50
59973;DHT22;55298;-36.624;-64.282;2022-09-09T04:52:07;6.30;81.30
59973;DHT22;55298;-36.624;-64.282;2022-09-09T04:54:35;6.10;81.90
59973;DHT22;55298;-36.624;-64.282;2022-09-09T04:57:04;6.10;81.70
59973;DHT22;55298;-36.624;-64.282;2022-09-09T04:59:33;6.10;82.70
59973;DHT22;55298;-36.624;-64.282;2022-09-09T05:02:02;6.10;83.20
59973;DHT22;55298;-36.624;-64.282;2022-09-09T05:04:31;6.20;82.60
59973;DHT22;55298;-36.624;-64.282;2022-09-09T05:06:59;6.30;82.20
59973;DHT22;55298;-36.624;-64.282;2022-09-09T05:09:27;6.30;82.50
59973;DHT22;55298;-36.624;-64.282;2022-09-09T05:11:56;6.30;81.30
59973;DHT22;55298;-36.624;-64.282;2022-09-09T05:14:24;6.30;81.40
59973;DHT22;55298;-36.624;-64.282;2022-09-09T05:16:53;6.30;81.60
59973;DHT22;55298;-36.624;-64.282;2022-09-09T05:19:24;6.30;81.50
59973;DHT22;55298;-36.624;-64.282;2022-09-09T05:21:52;6.40;81.60
59973;DHT22;55298;-36.624;-64.282;2022-09-09T05:24:20;6.50;79.90
59973;DHT22;55298;-36.624;-64.282;2022-09-09T05:26:50;6.40;80.50
59973;DHT22;55298;-36.624;-64.282;2022-09-09T05:29:18;6.50;80.20
59973;DHT22;55298;-36.624;-64.282;2022-09-09T05:31:46;6.40;80.50
59973;DHT22;55298;-36.624;-64.282;2022-09-09T05:34:15;6.40;80.60
59973;DHT22;55298;-36.624;-64.282;2022-09-09T05:36:42;6.30;81.00
59973;DHT22;55298;-36.624;-64.282;2022-09-09T05:39:10;6.30;82.10
59973;DHT22;55298;-36.624;-64.282;2022-09-09T05:41:38;6.10;82.40
59973;DHT22;55298;-36.624;-64.282;2022-09-09T05:44:07;6.00;83.20
59973;DHT22;55298;-36.624;-64.282;2022-09-09T05:46:34;5.80;83.50
59973;DHT22;55298;-36.624;-64.282;2022-09-09T05:49:03;5.80;85.50
59973;DHT22;55298;-36.624;-64.282;2022-09-09T05:51:32;5.80;86.00
59973;DHT22;55298;-36.624;-64.282;2022-09-09T05:54:01;5.60;85.80
59973;DHT22;55298;-36.624;-64.282;2022-09-09T05:56:29;5.60;86.40
59973;DHT22;55298;-36.624;-64.282;2022-09-09T05:58:59;5.60;86.00
59973;DHT22;55298;-36.624;-64.282;2022-09-09T06:01:29;5.50;84.30
59973;DHT22;55298;-36.624;-64.282;2022-09-09T06:03:58;5.60;81.70
59973;DHT22;55298;-36.624;-64.282;2022-09-09T06:06:33;5.50;80.80
59973;DHT22;55298;-36.624;-64.282;2022-09-09T06:09:04;5.50;80.90
59973;DHT22;55298;-36.624;-64.282;2022-09-09T06:11:38;5.40;82.20
59973;DHT22;55298;-36.624;-64.282;2022-09-09T06:14:07;5.30;83.00
59973;DHT22;55298;-36.624;-64.282;2022-09-09T06:16:35;5.30;83.60
59973;DHT22;55298;-36.624;-64.282;2022-09-09T06:19:04;5.30;83.00
59973;DHT22;55298;-36.624;-64.282;2022-09-09T06:21:34;5.20;82.50
59973;DHT22;55298;-36.624;-64.282;2022-09-09T06:24:04;5.20;83.00
59973;DHT22;55298;-36.624;-64.282;2022-09-09T06:26:35;5.30;81.90
59973;DHT22;55298;-36.624;-64.282;2022-09-09T06:29:06;5.30;80.80
59973;DHT22;55298;-36.624;-64.282;2022-09-09T06:31:35;5.30;81.00
59973;DHT22;55298;-36.624;-64.282;2022-09-09T06:34:07;5.10;81.60
59973;DHT22;55298;-36.624;-64.282;2022-09-09T06:36:38;5.10;82.00
59973;DHT22;55298;-36.624;-64.282;2022-09-09T06:39:08;5.10;81.90
59973;DHT22;55298;-36.624;-64.282;2022-09-09T06:41:38;5.00;81.20
59973;DHT22;55298;-36.624;-64.282;2022-09-09T06:44:07;4.90;81.30
59973;DHT22;55298;-36.624;-64.282;2022-09-09T06:46:38;4.80;81.60
59973;DHT22;55298;-36.624;-64.282;2022-09-09T06:49:07;4.90;81.20
59973;DHT22;55298;-36.624;-64.282;2022-09-09T06:51:37;4.80;81.80
59973;DHT22;55298;-36.624;-64.282;2022-09-09T06:54:08;4.60;83.00
59973;DHT22;55298;-36.624;-64.282;2022-09-09T06:56:38;4.50;83.60
59973;DHT22;55298;-36.624;-64.282;2022-09-09T06:59:09;4.40;85.00
59973;DHT22;55298;-36.624;-64.282;2022-09-09T07:01:40;4.50;86.30
59973;DHT22;55298;-36.624;-64.282;2022-09-09T07:04:10;4.60;86.40
59973;DHT22;55298;-36.624;-64.282;2022-09-09T07:06:42;4.90;85.80
59973;DHT22;55298;-36.624;-64.282;2022-09-09T07:09:13;5.00;84.90
59973;DHT22;55298;-36.624;-64.282;2022-09-09T07:11:48;4.90;85.80
59973;DHT22;55298;-36.624;-64.282;2022-09-09T07:14:19;4.80;86.80
59973;DHT22;55298;-36.624;-64.282;2022-09-09T07:16:47;4.90;86.90
59973;DHT22;55298;-36.624;-64.282;2022-09-09T07:19:16;4.90;86.40
59973;DHT22;55298;-36.624;-64.282;2022-09-09T07:21:44;4.80;87.20
59973;DHT22;55298;-36.624;-64.282;2022-09-09T07:24:12;5.00;86.90
59973;DHT22;55298;-36.624;-64.282;2022-09-09T07:26:41;5.00;87.00
59973;DHT22;55298;-36.624;-64.282;2022-09-09T07:29:10;4.90;87.40
59973;DHT22;55298;-36.624;-64.282;2022-09-09T07:31:40;4.90;87.30
59973;DHT22;55298;-36.624;-64.282;2022-09-09T07:34:09;4.90;87.50
59973;DHT22;55298;-36.624;-64.282;2022-09-09T07:36:38;5.00;86.90
59973;DHT22;55298;-36.624;-64.282;2022-09-09T07:39:10;5.00;86.40
59973;DHT22;55298;-36.624;-64.282;2022-09-09T07:41:42;5.00;87.10
59973;DHT22;55298;-36.624;-64.282;2022-09-09T07:44:16;5.00;86.60
59973;DHT22;55298;-36.624;-64.282;2022-09-09T07:46:44;5.00;86.00
59973;DHT22;55298;-36.624;-64.282;2022-09-09T07:49:12;5.20;84.60
59973;DHT22;55298;-36.624;-64.282;2022-09-09T07:51:43;5.20;84.10
59973;DHT22;55298;-36.624;-64.282;2022-09-09T07:54:14;5.20;84.30
59973;DHT22;55298;-36.624;-64.282;2022-09-09T07:56:42;5.00;85.10
59973;DHT22;55298;-36.624;-64.282;2022-09-09T07:59:10;5.10;85.50
59973;DHT22;55298;-36.624;-64.282;2022-09-09T08:01:45;4.90;85.50
59973;DHT22;55298;-36.624;-64.282;2022-09-09T08:04:17;4.90;85.70
59973;DHT22;55298;-36.624;-64.282;2022-09-09T08:06:48;4.90;85.80
59973;DHT22;55298;-36.624;-64.282;2022-09-09T08:09:17;4.90;85.70
59973;DHT22;55298;-36.624;-64.282;2022-09-09T08:11:45;4.80;86.10
59973;DHT22;55298;-36.624;-64.282;2022-09-09T08:14:13;4.80;86.70
59973;DHT22;55298;-36.624;-64.282;2022-09-09T08:16:43;4.80;88.50
59973;DHT22;55298;-36.624;-64.282;2022-09-09T08:19:13;4.70;87.70
59973;DHT22;55298;-36.624;-64.282;2022-09-09T08:21:43;4.60;88.20
59973;DHT22;55298;-36.624;-64.282;2022-09-09T08:24:13;4.60;87.80
59973;DHT22;55298;-36.624;-64.282;2022-09-09T08:26:44;4.40;88.30
59973;DHT22;55298;-36.624;-64.282;2022-09-09T08:29:15;4.50;89.10
59973;DHT22;55298;-36.624;-64.282;2022-09-09T08:31:46;4.40;88.20
59973;DHT22;55298;-36.624;-64.282;2022-09-09T08:34:15;4.30;88.50
59973;DHT22;55298;-36.624;-64.282;2022-09-09T08:36:49;4.40;88.60
59973;DHT22;55298;-36.624;-64.282;2022-09-09T08:39:19;4.30;87.70
59973;DHT22;55298;-36.624;-64.282;2022-09-09T08:42:06;4.30;87.10
59973;DHT22;55298;-36.624;-64.282;2022-09-09T08:44:56;4.30;87.90
59973;DHT22;55298;-36.624;-64.282;2022-09-09T08:47:50;4.40;88.20
59973;DHT22;55298;-36.624;-64.282;2022-09-09T08:50:28;4.50;87.70
59973;DHT22;55298;-36.624;-64.282;2022-09-09T08:53:21;4.50;88.20
59973;DHT22;55298;-36.624;-64.282;2022-09-09T08:55:51;4.50;89.00
59973;DHT22;55298;-36.624;-64.282;2022-09-09T08:58:23;4.50;89.50
59973;DHT22;55298;-36.624;-64.282;2022-09-09T09:01:27;4.50;90.00
59973;DHT22;55298;-36.624;-64.282;2022-09-09T09:07:09;4.70;89.40
59973;DHT22;55298;-36.624;-64.282;2022-09-09T09:12:29;4.50;90.00
59973;DHT22;55298;-36.624;-64.282;2022-09-09T09:15:00;4.50;90.30
59973;DHT22;55298;-36.624;-64.282;2022-09-09T09:17:29;4.60;90.20
59973;DHT22;55298;-36.624;-64.282;2022-09-09T09:19:59;4.70;90.10
59973;DHT22;55298;-36.624;-64.282;2022-09-09T09:22:41;4.80;89.70
59973;DHT22;55298;-36.624;-64.282;2022-09-09T09:25:23;4.80;89.80
59973;DHT22;55298;-36.624;-64.282;2022-09-09T09:28:00;4.80;89.60
59973;DHT22;55298;-36.624;-64.282;2022-09-09T09:30:39;4.80;89.60
59973;DHT22;55298;-36.624;-64.282;2022-09-09T09:33:21;4.60;90.00
59973;DHT22;55298;-36.624;-64.282;2022-09-09T09:35:53;4.70;90.60
59973;DHT22;55298;-36.624;-64.282;2022-09-09T09:38:25;4.80;90.50
59973;DHT22;55298;-36.624;-64.282;2022-09-09T09:40:56;4.80;90.50
59973;DHT22;55298;-36.624;-64.282;2022-09-09T09:43:30;4.80;90.20
59973;DHT22;55298;-36.624;-64.282;2022-09-09T09:45:59;4.80;90.00
59973;DHT22;55298;-36.624;-64.282;2022-09-09T09:48:28;4.70;90.40
59973;DHT22;55298;-36.624;-64.282;2022-09-09T09:51:00;4.60;90.40
59973;DHT22;55298;-36.624;-64.282;2022-09-09T09:53:31;4.60;90.60
59973;DHT22;55298;-36.624;-64.282;2022-09-09T09:56:03;4.50;90.80
59973;DHT22;55298;-36.624;-64.282;2022-09-09T09:58:48;4.60;91.10
59973;DHT22;55298;-36.624;-64.282;2022-09-09T10:01:37;4.70;91.10
59973;DHT22;55298;-36.624;-64.282;2022-09-09T10:04:21;4.70;90.70
59973;DHT22;55298;-36.624;-64.282;2022-09-09T10:06:57;4.60;90.10
59973;DHT22;55298;-36.624;-64.282;2022-09-09T10:09:34;4.60;90.40
59973;DHT22;55298;-36.624;-64.282;2022-09-09T10:12:47;4.70;90.30
59973;DHT22;55298;-36.624;-64.282;2022-09-09T10:15:38;4.60;90.30
59973;DHT22;55298;-36.624;-64.282;2022-09-09T10:18:34;4.50;90.70
59973;DHT22;55298;-36.624;-64.282;2022-09-09T10:21:28;4.50;91.20
59973;DHT22;55298;-36.624;-64.282;2022-09-09T10:24:27;4.40;91.50
59973;DHT22;55298;-36.624;-64.282;2022-09-09T10:27:11;4.50;92.10
59973;DHT22;55298;-36.624;-64.282;2022-09-09T10:33:02;4.40;92.10
59973;DHT22;55298;-36.624;-64.282;2022-09-09T10:38:45;4.70;91.70
59973;DHT22;55298;-36.624;-64.282;2022-09-09T10:41:22;4.60;91.90
59973;DHT22;55298;-36.624;-64.282;2022-09-09T10:47:01;4.70;91.30
59973;DHT22;55298;-36.624;-64.282;2022-09-09T10:50:01;4.70;91.10
59973;DHT22;55298;-36.624;-64.282;2022-09-09T10:55:43;4.90;91.20
59973;DHT22;55298;-36.624;-64.282;2022-09-09T10:58:23;4.90;90.50
59973;DHT22;55298;-36.624;-64.282;2022-09-09T11:00:58;5.20;89.60
59973;DHT22;55298;-36.624;-64.282;2022-09-09T11:04:13;5.20;90.00
59973;DHT22;55298;-36.624;-64.282;2022-09-09T11:06:49;5.90;84.00
59973;DHT22;55298;-36.624;-64.282;2022-09-09T11:09:26;6.50;82.00
59973;DHT22;55298;-36.624;-64.282;2022-09-09T11:11:57;7.10;75.50
59973;DHT22;55298;-36.624;-64.282;2022-09-09T11:14:42;7.10;75.90
59973;DHT22;55298;-36.624;-64.282;2022-09-09T11:17:18;7.30;73.00
59973;DHT22;55298;-36.624;-64.282;2022-09-09T11:19:46;7.60;71.60
59973;DHT22;55298;-36.624;-64.282;2022-09-09T11:22:30;8.30;66.70
59973;DHT22;55298;-36.624;-64.282;2022-09-09T11:25:21;8.30;67.20
59973;DHT22;55298;-36.624;-64.282;2022-09-09T11:31:27;8.70;63.90
59973;DHT22;55298;-36.624;-64.282;2022-09-09T11:42:59;9.50;58.00
59973;DHT22;55298;-36.624;-64.282;2022-09-09T11:45:34;9.20;56.40
59973;DHT22;55298;-36.624;-64.282;2022-09-09T11:48:21;8.70;57.60
59973;DHT22;55298;-36.624;-64.282;2022-09-09T11:51:09;8.50;59.00
59973;DHT22;55298;-36.624;-64.282;2022-09-09T11:53:59;8.60;58.80
59973;DHT22;55298;-36.624;-64.282;2022-09-09T11:56:32;8.50;59.30
59973;DHT22;55298;-36.624;-64.282;2022-09-09T11:59:06;8.50;59.50
59973;DHT22;55298;-36.624;-64.282;2022-09-09T12:01:42;8.70;58.60
59973;DHT22;55298;-36.624;-64.282;2022-09-09T12:04:26;8.90;58.30
59973;DHT22;55298;-36.624;-64.282;2022-09-09T12:10:03;9.50;56.70
59973;DHT22;55298;-36.624;-64.282;2022-09-09T12:12:37;9.60;56.90
59973;DHT22;55298;-36.624;-64.282;2022-09-09T12:15:25;10.00;55.40
59973;DHT22;55298;-36.624;-64.282;2022-09-09T12:17:57;10.50;53.20
59973;DHT22;55298;-36.624;-64.282;2022-09-09T12:20:37;10.50;53.70
59973;DHT22;55298;-36.624;-64.282;2022-09-09T12:26:18;10.80;52.40
59973;DHT22;55298;-36.624;-64.282;2022-09-09T12:30:02;11.30;51.50
59973;DHT22;55298;-36.624;-64.282;2022-09-09T12:32:10;11.50;50.90
59973;DHT22;55298;-36.624;-64.282;2022-09-09T12:34:47;11.70;50.40
59973;DHT22;55298;-36.624;-64.282;2022-09-09T12:37:35;11.70;49.90
59973;DHT22;55298;-36.624;-64.282;2022-09-09T12:40:21;11.70;49.30
59973;DHT22;55298;-36.624;-64.282;2022-09-09T12:43:00;12.00;49.70
59973;DHT22;55298;-36.624;-64.282;2022-09-09T12:45:32;11.90;50.30
59973;DHT22;55298;-36.624;-64.282;2022-09-09T12:48:07;12.00;49.60
59973;DHT22;55298;-36.624;-64.282;2022-09-09T12:50:46;12.20;49.40
59973;DHT22;55298;-36.624;-64.282;2022-09-09T12:53:27;12.70;48.30
59973;DHT22;55298;-36.624;-64.282;2022-09-09T12:56:05;12.90;47.50
59973;DHT22;55298;-36.624;-64.282;2022-09-09T12:58:44;13.10;46.70
59973;DHT22;55298;-36.624;-64.282;2022-09-09T13:01:27;13.00;47.20
59973;DHT22;55298;-36.624;-64.282;2022-09-09T13:03:58;13.10;47.10
59973;DHT22;55298;-36.624;-64.282;2022-09-09T13:06:30;13.40;46.40
59973;DHT22;55298;-36.624;-64.282;2022-09-09T13:09:04;13.70;45.70
59973;DHT22;55298;-36.624;-64.282;2022-09-09T13:11:52;13.60;45.50
59973;DHT22;55298;-36.624;-64.282;2022-09-09T13:14:33;13.90;45.30
59973;DHT22;55298;-36.624;-64.282;2022-09-09T13:17:15;13.80;45.00
59973;DHT22;55298;-36.624;-64.282;2022-09-09T13:19:53;14.00;44.90
59973;DHT22;55298;-36.624;-64.282;2022-09-09T13:22:35;14.00;45.00
59973;DHT22;55298;-36.624;-64.282;2022-09-09T13:25:22;14.10;44.30
59973;DHT22;55298;-36.624;-64.282;2022-09-09T13:28:03;14.20;44.20
59973;DHT22;55298;-36.624;-64.282;2022-09-09T13:30:39;14.40;44.20
59973;DHT22;55298;-36.624;-64.282;2022-09-09T13:33:24;14.40;43.30
59973;DHT22;55298;-36.624;-64.282;2022-09-09T13:36:05;14.00;44.50
59973;DHT22;55298;-36.624;-64.282;2022-09-09T13:38:53;13.80;45.40
59973;DHT22;55298;-36.624;-64.282;2022-09-09T13:41:25;14.40;44.50
59973;DHT22;55298;-36.624;-64.282;2022-09-09T13:44:03;14.70;43.10
59973;DHT22;55298;-36.624;-64.282;2022-09-09T13:46:37;15.00;42.50
59973;DHT22;55298;-36.624;-64.282;2022-09-09T13:49:21;15.10;42.10
59973;DHT22;55298;-36.624;-64.282;2022-09-09T13:52:04;15.20;41.60
59973;DHT22;55298;-36.624;-64.282;2022-09-09T13:54:36;15.00;42.30
59973;DHT22;55298;-36.624;-64.282;2022-09-09T13:57:05;14.40;43.70
59973;DHT22;55298;-36.624;-64.282;2022-09-09T13:59:34;14.60;43.30
59973;DHT22;55298;-36.624;-64.282;2022-09-09T14:02:03;14.90;42.90
59973;DHT22;55298;-36.624;-64.282;2022-09-09T14:04:31;15.30;41.90
59973;DHT22;55298;-36.624;-64.282;2022-09-09T14:07:03;15.50;41.30
59973;DHT22;55298;-36.624;-64.282;2022-09-09T14:09:33;15.90;41.00
59973;DHT22;55298;-36.624;-64.282;2022-09-09T14:12:03;15.80;40.40
59973;DHT22;55298;-36.624;-64.282;2022-09-09T14:14:31;16.10;40.10
59973;DHT22;55298;-36.624;-64.282;2022-09-09T14:20:19;16.10;39.50
59973;DHT22;55298;-36.624;-64.282;2022-09-09T14:22:51;16.10;39.10
59973;DHT22;55298;-36.624;-64.282;2022-09-09T14:25:25;16.10;39.50
59973;DHT22;55298;-36.624;-64.282;2022-09-09T14:28:00;16.60;38.10
59973;DHT22;55298;-36.624;-64.282;2022-09-09T14:30:59;16.70;38.10
59973;DHT22;55298;-36.624;-64.282;2022-09-09T14:33:32;16.50;38.10
59973;DHT22;55298;-36.624;-64.282;2022-09-09T14:36:25;16.20;38.50
59973;DHT22;55298;-36.624;-64.282;2022-09-09T14:38:57;16.20;39.20
59973;DHT22;55298;-36.624;-64.282;2022-09-09T14:41:26;16.30;38.80
59973;DHT22;55298;-36.624;-64.282;2022-09-09T14:43:57;17.80;38.90
59973;DHT22;55298;-36.624;-64.282;2022-09-09T14:46:29;16.60;36.40
59973;DHT22;55298;-36.624;-64.282;2022-09-09T14:49:21;16.60;37.10
59973;DHT22;55298;-36.624;-64.282;2022-09-09T14:51:52;16.30;37.80
59973;DHT22;55298;-36.624;-64.282;2022-09-09T14:54:48;16.40;36.90
59973;DHT22;55298;-36.624;-64.282;2022-09-09T14:57:30;15.70;36.70
59973;DHT22;55298;-36.624;-64.282;2022-09-09T15:00:07;16.20;36.60
59973;DHT22;55298;-36.624;-64.282;2022-09-09T15:02:58;16.40;36.80
59973;DHT22;55298;-36.624;-64.282;2022-09-09T15:05:38;16.50;35.90
59973;DHT22;55298;-36.624;-64.282;2022-09-09T15:11:02;16.00;36.30
59973;DHT22;55298;-36.624;-64.282;2022-09-09T15:13:34;15.80;36.80
59973;DHT22;55298;-36.624;-64.282;2022-09-09T15:16:13;15.40;37.10
59973;DHT22;55298;-36.624;-64.282;2022-09-09T15:18:51;15.00;37.90
59973;DHT22;55298;-36.624;-64.282;2022-09-09T15:21:24;14.80;38.20
59973;DHT22;55298;-36.624;-64.282;2022-09-09T15:23:56;15.00;38.00
59973;DHT22;55298;-36.624;-64.282;2022-09-09T15:26:26;14.90;36.20
59973;DHT22;55298;-36.624;-64.282;2022-09-09T15:28:54;14.70;37.50
59973;DHT22;55298;-36.624;-64.282;2022-09-09T15:31:28;15.00;37.70
59973;DHT22;55298;-36.624;-64.282;2022-09-09T15:34:01;15.20;37.00
59973;DHT22;55298;-36.624;-64.282;2022-09-09T15:36:35;15.30;36.60
59973;DHT22;55298;-36.624;-64.282;2022-09-09T15:39:14;15.40;36.60
59973;DHT22;55298;-36.624;-64.282;2022-09-09T15:41:45;15.80;35.80
59973;DHT22;55298;-36.624;-64.282;2022-09-09T15:44:15;16.40;34.90
59973;DHT22;55298;-36.624;-64.282;2022-09-09T15:46:45;16.60;34.00
59973;DHT22;55298;-36.624;-64.282;2022-09-09T15:49:17;16.00;35.40
59973;DHT22;55298;-36.624;-64.282;2022-09-09T15:51:52;15.90;35.70
59973;DHT22;55298;-36.624;-64.282;2022-09-09T15:54:22;15.70;34.80
59973;DHT22;55298;-36.624;-64.282;2022-09-09T15:56:58;15.50;35.30
59973;DHT22;55298;-36.624;-64.282;2022-09-09T15:59:30;15.60;33.60
59973;DHT22;55298;-36.624;-64.282;2022-09-09T16:02:00;15.40;33.50
59973;DHT22;55298;-36.624;-64.282;2022-09-09T16:04:29;15.30;33.70
59973;DHT22;55298;-36.624;-64.282;2022-09-09T16:07:02;15.40;33.50
59973;DHT22;55298;-36.624;-64.282;2022-09-09T16:09:32;15.40;32.60
59973;DHT22;55298;-36.624;-64.282;2022-09-09T16:12:04;15.40;32.40
59973;DHT22;55298;-36.624;-64.282;2022-09-09T16:14:33;15.50;32.20
59973;DHT22;55298;-36.624;-64.282;2022-09-09T16:17:12;16.30;32.20
59973;DHT22;55298;-36.624;-64.282;2022-09-09T16:20:11;16.00;32.00
59973;DHT22;55298;-36.624;-64.282;2022-09-09T16:22:41;15.80;31.60
59973;DHT22;55298;-36.624;-64.282;2022-09-09T16:25:09;15.70;31.70
59973;DHT22;55298;-36.624;-64.282;2022-09-09T16:27:38;15.80;31.60
59973;DHT22;55298;-36.624;-64.282;2022-09-09T16:30:10;15.60;30.60
59973;DHT22;55298;-36.624;-64.282;2022-09-09T16:32:38;15.70;30.90
59973;DHT22;55298;-36.624;-64.282;2022-09-09T16:35:07;15.40;30.60
59973;DHT22;55298;-36.624;-64.282;2022-09-09T16:37:34;15.40;30.70
59973;DHT22;55298;-36.624;-64.282;2022-09-09T16:40:03;15.60;30.70
59973;DHT22;55298;-36.624;-64.282;2022-09-09T16:42:32;15.80;30.60
59973;DHT22;55298;-36.624;-64.282;2022-09-09T16:45:00;15.70;31.00
59973;DHT22;55298;-36.624;-64.282;2022-09-09T16:47:29;15.80;30.90
59973;DHT22;55298;-36.624;-64.282;2022-09-09T16:50:03;15.90;30.90
59973;DHT22;55298;-36.624;-64.282;2022-09-09T16:52:37;16.10;30.50
59973;DHT22;55298;-36.624;-64.282;2022-09-09T16:55:06;16.10;30.30
59973;DHT22;55298;-36.624;-64.282;2022-09-09T16:57:36;16.30;30.30